sensor_id;sensor_type;location;lat;lon;timestamp;temperature;humidity
26579;DHT22;14227;47.674;19.320;2023-04-02T00:02:35;16.20;51.40
26579;DHT22;14227;47.674;19.320;2023-04-02T00:07:47;16.20;51.40
26579;DHT22;14227;47.674;19.320;2023-04-02T00:10:33;16.20;51.40
26579;DHT22;14227;47.674;19.320;2023-04-02T00:13:21;16.20;51.40
26579;DHT22;14227;47.674;19.320;2023-04-02T00:15:49;16.20;51.40
26579;DHT22;14227;47.674;19.320;2023-04-02T00:18:18;16.20;51.40
26579;DHT22;14227;47.674;19.320;2023-04-02T00:21:12;16.20;51.40
26579;DHT22;14227;47.674;19.320;2023-04-02T00:23:41;16.10;51.30
26579;DHT22;14227;47.674;19.320;2023-04-02T00:26:22;16.10;51.30
26579;DHT22;14227;47.674;19.320;2023-04-02T00:28:50;16.10;51.30
26579;DHT22;14227;47.674;19.320;2023-04-02T00:31:18;16.10;51.30
26579;DHT22;14227;47.674;19.320;2023-04-02T00:33:45;16.10;51.30
26579;DHT22;14227;47.674;19.320;2023-04-02T00:36:11;16.10;51.30
26579;DHT22;14227;47.674;19.320;2023-04-02T00:38:37;16.10;51.30
26579;DHT22;14227;47.674;19.320;2023-04-02T00:41:06;16.10;51.30
26579;DHT22;14227;47.674;19.320;2023-04-02T00:43:37;16.10;51.30
26579;DHT22;14227;47.674;19.320;2023-04-02T00:46:10;16.10;51.30
26579;DHT22;14227;47.674;19.320;2023-04-02T00:51:30;16.00;51.20
26579;DHT22;14227;47.674;19.320;2023-04-02T00:54:00;16.00;51.20
26579;DHT22;14227;47.674;19.320;2023-04-02T00:56:31;16.00;51.20
26579;DHT22;14227;47.674;19.320;2023-04-02T00:58:57;16.00;51.20
26579;DHT22;14227;47.674;19.320;2023-04-02T01:01:36;16.00;51.20
26579;DHT22;14227;47.674;19.320;2023-04-02T01:04:29;16.00;51.30
26579;DHT22;14227;47.674;19.320;2023-04-02T01:07:03;16.00;51.20
26579;DHT22;14227;47.674;19.320;2023-04-02T01:18:18;15.90;51.10
26579;DHT22;14227;47.674;19.320;2023-04-02T01:26:47;15.90;51.10
26579;DHT22;14227;47.674;19.320;2023-04-02T01:29:28;15.90;51.10
26579;DHT22;14227;47.674;19.320;2023-04-02T01:31:59;15.90;51.10
26579;DHT22;14227;47.674;19.320;2023-04-02T01:34:27;15.90;51.10
26579;DHT22;14227;47.674;19.320;2023-04-02T01:36:56;15.90;51.10
26579;DHT22;14227;47.674;19.320;2023-04-02T01:45:09;15.90;51.10
26579;DHT22;14227;47.674;19.320;2023-04-02T01:47:37;15.90;51.10
26579;DHT22;14227;47.674;19.320;2023-04-02T01:52:46;15.90;51.10
26579;DHT22;14227;47.674;19.320;2023-04-02T01:55:14;15.80;51.00
26579;DHT22;14227;47.674;19.320;2023-04-02T01:57:45;15.80;51.00
26579;DHT22;14227;47.674;19.320;2023-04-02T02:00:14;15.80;51.70
26579;DHT22;14227;47.674;19.320;2023-04-02T02:02:41;15.80;51.00
26579;DHT22;14227;47.674;19.320;2023-04-02T02:05:16;15.80;51.00
26579;DHT22;14227;47.674;19.320;2023-04-02T02:07:43;15.80;51.00
26579;DHT22;14227;47.674;19.320;2023-04-02T02:10:15;15.80;51.00
26579;DHT22;14227;47.674;19.320;2023-04-02T02:12:45;15.80;51.00
26579;DHT22;14227;47.674;19.320;2023-04-02T02:15:18;15.80;51.00
26579;DHT22;14227;47.674;19.320;2023-04-02T02:17:44;15.80;51.00
26579;DHT22;14227;47.674;19.320;2023-04-02T02:20:11;15.80;51.00
26579;DHT22;14227;47.674;19.320;2023-04-02T02:22:46;15.80;51.00
26579;DHT22;14227;47.674;19.320;2023-04-02T02:25:25;15.80;51.00
26579;DHT22;14227;47.674;19.320;2023-04-02T02:28:08;15.80;51.00
26579;DHT22;14227;47.674;19.320;2023-04-02T02:33:18;15.80;51.00
26579;DHT22;14227;47.674;19.320;2023-04-02T02:36:04;15.70;51.00
26579;DHT22;14227;47.674;19.320;2023-04-02T02:38:55;15.70;51.10
26579;DHT22;14227;47.674;19.320;2023-04-02T02:41:40;15.70;51.00
26579;DHT22;14227;47.674;19.320;2023-04-02T02:44:14;15.70;51.20
26579;DHT22;14227;47.674;19.320;2023-04-02T02:47:08;15.70;51.40
26579;DHT22;14227;47.674;19.320;2023-04-02T02:49:47;15.70;51.20
26579;DHT22;14227;47.674;19.320;2023-04-02T02:52:20;15.70;51.30
26579;DHT22;14227;47.674;19.320;2023-04-02T02:54:50;15.70;51.40
26579;DHT22;14227;47.674;19.320;2023-04-02T02:57:29;15.70;51.40
26579;DHT22;14227;47.674;19.320;2023-04-02T02:59:57;15.70;51.50
26579;DHT22;14227;47.674;19.320;2023-04-02T03:02:25;15.70;51.60
26579;DHT22;14227;47.674;19.320;2023-04-02T03:04:53;15.70;51.60
26579;DHT22;14227;47.674;19.320;2023-04-02T03:07:21;15.70;51.70
26579;DHT22;14227;47.674;19.320;2023-04-02T03:10:02;15.70;51.70
26579;DHT22;14227;47.674;19.320;2023-04-02T03:15:31;15.60;51.50
26579;DHT22;14227;47.674;19.320;2023-04-02T03:18:16;15.70;51.70
26579;DHT22;14227;47.674;19.320;2023-04-02T03:20:55;15.60;51.60
26579;DHT22;14227;47.674;19.320;2023-04-02T03:23:35;15.70;51.60
26579;DHT22;14227;47.674;19.320;2023-04-02T03:26:05;15.60;51.60
26579;DHT22;14227;47.674;19.320;2023-04-02T03:28:38;15.60;51.70
26579;DHT22;14227;47.674;19.320;2023-04-02T03:31:07;15.60;51.70
26579;DHT22;14227;47.674;19.320;2023-04-02T03:33:42;15.60;51.70
26579;DHT22;14227;47.674;19.320;2023-04-02T03:36:27;15.60;51.70
26579;DHT22;14227;47.674;19.320;2023-04-02T03:41:57;15.60;51.70
26579;DHT22;14227;47.674;19.320;2023-04-02T03:44:33;15.60;51.80
26579;DHT22;14227;47.674;19.320;2023-04-02T03:50:07;15.50;51.60
26579;DHT22;14227;47.674;19.320;2023-04-02T03:52:36;15.60;51.80
26579;DHT22;14227;47.674;19.320;2023-04-02T03:55:20;15.50;51.70
26579;DHT22;14227;47.674;19.320;2023-04-02T03:58:19;15.50;51.70
26579;DHT22;14227;47.674;19.320;2023-04-02T04:01:03;15.50;51.70
26579;DHT22;14227;47.674;19.320;2023-04-02T04:06:17;15.50;51.80
26579;DHT22;14227;47.674;19.320;2023-04-02T04:08:50;15.50;51.80
26579;DHT22;14227;47.674;19.320;2023-04-02T04:11:28;15.50;51.90
26579;DHT22;14227;47.674;19.320;2023-04-02T04:16:25;15.50;51.90
26579;DHT22;14227;47.674;19.320;2023-04-02T04:19:00;15.50;52.00
26579;DHT22;14227;47.674;19.320;2023-04-02T04:21:29;15.50;51.90
26579;DHT22;14227;47.674;19.320;2023-04-02T04:24:00;15.50;51.90
26579;DHT22;14227;47.674;19.320;2023-04-02T04:29:49;15.50;51.90
26579;DHT22;14227;47.674;19.320;2023-04-02T04:32:28;15.50;51.90
26579;DHT22;14227;47.674;19.320;2023-04-02T04:37:42;15.40;51.90
26579;DHT22;14227;47.674;19.320;2023-04-02T04:40:23;15.40;51.90
26579;DHT22;14227;47.674;19.320;2023-04-02T04:42:54;15.40;51.90
26579;DHT22;14227;47.674;19.320;2023-04-02T04:45:40;15.40;52.00
26579;DHT22;14227;47.674;19.320;2023-04-02T04:48:27;15.40;51.90
26579;DHT22;14227;47.674;19.320;2023-04-02T04:50:58;15.40;51.90
26579;DHT22;14227;47.674;19.320;2023-04-02T04:53:26;15.40;52.00
26579;DHT22;14227;47.674;19.320;2023-04-02T04:55:54;15.40;52.10
26579;DHT22;14227;47.674;19.320;2023-04-02T04:58:29;15.40;52.10
26579;DHT22;14227;47.674;19.320;2023-04-02T05:01:16;15.40;52.10
26579;DHT22;14227;47.674;19.320;2023-04-02T05:04:34;15.40;52.10
26579;DHT22;14227;47.674;19.320;2023-04-02T05:07:22;15.40;52.00
26579;DHT22;14227;47.674;19.320;2023-04-02T05:21:25;15.30;52.00
26579;DHT22;14227;47.674;19.320;2023-04-02T05:23:58;15.30;52.00
26579;DHT22;14227;47.674;19.320;2023-04-02T05:26:36;15.30;52.00
26579;DHT22;14227;47.674;19.320;2023-04-02T05:29:34;15.30;52.00
26579;DHT22;14227;47.674;19.320;2023-04-02T05:32:21;15.30;52.00
26579;DHT22;14227;47.674;19.320;2023-04-02T05:34:52;15.30;52.00
26579;DHT22;14227;47.674;19.320;2023-04-02T05:37:24;15.30;52.00
26579;DHT22;14227;47.674;19.320;2023-04-02T05:39:56;15.30;52.00
26579;DHT22;14227;47.674;19.320;2023-04-02T05:42:24;15.30;52.00
26579;DHT22;14227;47.674;19.320;2023-04-02T05:47:40;15.30;51.90
26579;DHT22;14227;47.674;19.320;2023-04-02T05:50:32;15.30;51.80
26579;DHT22;14227;47.674;19.320;2023-04-02T05:55:40;15.30;51.80
26579;DHT22;14227;47.674;19.320;2023-04-02T06:01:03;15.30;51.80
26579;DHT22;14227;47.674;19.320;2023-04-02T06:03:59;15.30;51.80
26579;DHT22;14227;47.674;19.320;2023-04-02T06:09:23;15.30;51.80
26579;DHT22;14227;47.674;19.320;2023-04-02T06:12:12;15.30;51.80
26579;DHT22;14227;47.674;19.320;2023-04-02T06:14:40;15.30;51.80
26579;DHT22;14227;47.674;19.320;2023-04-02T06:17:12;15.30;51.80
26579;DHT22;14227;47.674;19.320;2023-04-02T06:19:38;15.30;51.80
26579;DHT22;14227;47.674;19.320;2023-04-02T06:24:57;15.30;51.80
26579;DHT22;14227;47.674;19.320;2023-04-02T06:27:25;15.30;51.80
26579;DHT22;14227;47.674;19.320;2023-04-02T06:29:56;15.30;51.80
26579;DHT22;14227;47.674;19.320;2023-04-02T06:32:23;15.30;51.90
26579;DHT22;14227;47.674;19.320;2023-04-02T06:34:51;15.30;52.00
26579;DHT22;14227;47.674;19.320;2023-04-02T06:37:34;15.30;52.00
26579;DHT22;14227;47.674;19.320;2023-04-02T06:40:02;15.30;51.90
26579;DHT22;14227;47.674;19.320;2023-04-02T06:42:34;15.30;51.90
26579;DHT22;14227;47.674;19.320;2023-04-02T06:45:01;15.30;51.90
26579;DHT22;14227;47.674;19.320;2023-04-02T06:50:26;15.30;51.80
26579;DHT22;14227;47.674;19.320;2023-04-02T06:53:06;15.30;52.50
26579;DHT22;14227;47.674;19.320;2023-04-02T06:55:52;15.30;51.80
26579;DHT22;14227;47.674;19.320;2023-04-02T07:04:14;15.30;51.80
26579;DHT22;14227;47.674;19.320;2023-04-02T07:06:40;15.30;51.80
26579;DHT22;14227;47.674;19.320;2023-04-02T07:09:06;15.30;51.80
26579;DHT22;14227;47.674;19.320;2023-04-02T07:11:32;15.30;51.80
26579;DHT22;14227;47.674;19.320;2023-04-02T07:13:58;15.30;51.80
26579;DHT22;14227;47.674;19.320;2023-04-02T07:16:26;15.30;51.80
26579;DHT22;14227;47.674;19.320;2023-04-02T07:18:53;15.30;51.70
26579;DHT22;14227;47.674;19.320;2023-04-02T07:21:20;15.30;51.60
26579;DHT22;14227;47.674;19.320;2023-04-02T07:23:46;15.40;51.70
26579;DHT22;14227;47.674;19.320;2023-04-02T07:26:14;15.40;51.70
26579;DHT22;14227;47.674;19.320;2023-04-02T07:28:41;15.40;51.70
26579;DHT22;14227;47.674;19.320;2023-04-02T07:31:24;15.40;51.80
26579;DHT22;14227;47.674;19.320;2023-04-02T07:33:53;15.40;51.70
26579;DHT22;14227;47.674;19.320;2023-04-02T07:36:21;15.40;51.80
26579;DHT22;14227;47.674;19.320;2023-04-02T07:38:47;15.40;51.90
26579;DHT22;14227;47.674;19.320;2023-04-02T07:41:13;15.50;51.90
26579;DHT22;14227;47.674;19.320;2023-04-02T07:43:40;15.50;51.90
26579;DHT22;14227;47.674;19.320;2023-04-02T07:46:07;15.50;51.90
26579;DHT22;14227;47.674;19.320;2023-04-02T07:48:34;15.50;51.80
26579;DHT22;14227;47.674;19.320;2023-04-02T07:51:01;15.50;51.90
26579;DHT22;14227;47.674;19.320;2023-04-02T07:53:32;15.60;51.90
26579;DHT22;14227;47.674;19.320;2023-04-02T07:56:04;15.60;51.90
26579;DHT22;14227;47.674;19.320;2023-04-02T07:58:32;15.60;51.90
26579;DHT22;14227;47.674;19.320;2023-04-02T08:01:02;15.60;51.80
26579;DHT22;14227;47.674;19.320;2023-04-02T08:03:30;15.60;51.80
26579;DHT22;14227;47.674;19.320;2023-04-02T08:05:57;15.60;51.80
26579;DHT22;14227;47.674;19.320;2023-04-02T08:08:24;15.70;51.10
26579;DHT22;14227;47.674;19.320;2023-04-02T08:10:50;15.70;51.00
26579;DHT22;14227;47.674;19.320;2023-04-02T08:13:17;15.70;50.90
26579;DHT22;14227;47.674;19.320;2023-04-02T08:18:49;15.80;47.90
26579;DHT22;14227;47.674;19.320;2023-04-02T08:24:32;15.80;47.20
26579;DHT22;14227;47.674;19.320;2023-04-02T08:26:58;15.70;47.30
26579;DHT22;14227;47.674;19.320;2023-04-02T10:01:55;17.00;44.40
